sensor_id;sensor_type;location;lat;lon;timestamp;P1;durP1;ratioP1;P2;durP2;ratioP2
52368;SDS011;38298;50.346;3.526;2022-10-03T18:02:16;7.13;;;3.60;;
52368;SDS011;38298;50.346;3.526;2022-10-03T18:04:44;7.55;;;2.97;;
52368;SDS011;38298;50.346;3.526;2022-10-03T18:07:19;9.93;;;3.20;;
52368;SDS011;38298;50.346;3.526;2022-10-03T18:09:48;10.07;;;3.50;;
52368;SDS011;38298;50.346;3.526;2022-10-03T18:14:55;10.88;;;3.00;;
52368;SDS011;38298;50.346;3.526;2022-10-03T18:17:30;7.78;;;2.90;;
52368;SDS011;38298;50.346;3.526;2022-10-03T18:22:27;8.55;;;3.45;;
52368;SDS011;38298;50.346;3.526;2022-10-03T18:25:01;10.73;;;2.90;;
52368;SDS011;38298;50.346;3.526;2022-10-03T18:32:56;11.75;;;3.30;;
52368;SDS011;38298;50.346;3.526;2022-10-03T18:35:25;4.95;;;2.55;;
52368;SDS011;38298;50.346;3.526;2022-10-03T18:38:00;11.93;;;3.83;;
52368;SDS011;38298;50.346;3.526;2022-10-03T18:40:29;10.70;;;3.67;;
52368;SDS011;38298;50.346;3.526;2022-10-03T18:42:58;9.02;;;3.10;;
52368;SDS011;38298;50.346;3.526;2022-10-03T18:47:56;10.05;;;3.40;;
52368;SDS011;38298;50.346;3.526;2022-10-03T18:50:31;9.18;;;3.40;;
52368;SDS011;38298;50.346;3.526;2022-10-03T18:53:13;9.88;;;4.38;;
52368;SDS011;38298;50.346;3.526;2022-10-03T18:55:42;14.57;;;3.67;;
52368;SDS011;38298;50.346;3.526;2022-10-03T19:03:39;11.35;;;3.40;;
52368;SDS011;38298;50.346;3.526;2022-10-03T19:06:18;7.07;;;3.47;;
52368;SDS011;38298;50.346;3.526;2022-10-03T19:08:50;7.00;;;3.15;;
52368;SDS011;38298;50.346;3.526;2022-10-03T19:13:46;11.30;;;3.70;;
52368;SDS011;38298;50.346;3.526;2022-10-03T19:18:48;14.60;;;3.72;;
52368;SDS011;38298;50.346;3.526;2022-10-03T19:21:19;10.25;;;4.00;;
52368;SDS011;38298;50.346;3.526;2022-10-03T19:23:57;11.50;;;4.10;;
52368;SDS011;38298;50.346;3.526;2022-10-03T19:26:28;14.50;;;6.50;;
52368;SDS011;38298;50.346;3.526;2022-10-03T19:28:57;15.63;;;6.95;;
52368;SDS011;38298;50.346;3.526;2022-10-03T19:31:38;13.40;;;5.57;;
52368;SDS011;38298;50.346;3.526;2022-10-03T19:34:19;10.00;;;4.72;;
52368;SDS011;38298;50.346;3.526;2022-10-03T19:36:49;11.45;;;4.35;;
52368;SDS011;38298;50.346;3.526;2022-10-03T19:39:16;11.02;;;3.97;;
52368;SDS011;38298;50.346;3.526;2022-10-03T19:41:46;9.27;;;4.78;;
52368;SDS011;38298;50.346;3.526;2022-10-03T19:44:16;8.68;;;4.22;;
52368;SDS011;38298;50.346;3.526;2022-10-03T19:49:22;9.35;;;4.20;;
52368;SDS011;38298;50.346;3.526;2022-10-03T19:51:50;11.25;;;4.57;;
52368;SDS011;38298;50.346;3.526;2022-10-03T19:54:53;14.52;;;4.18;;
52368;SDS011;38298;50.346;3.526;2022-10-03T19:57:18;13.35;;;4.28;;
52368;SDS011;38298;50.346;3.526;2022-10-03T19:59:52;10.57;;;3.90;;
52368;SDS011;38298;50.346;3.526;2022-10-03T20:02:23;7.85;;;4.07;;
52368;SDS011;38298;50.346;3.526;2022-10-03T20:04:50;12.02;;;5.20;;
52368;SDS011;38298;50.346;3.526;2022-10-03T20:07:18;14.48;;;5.07;;
52368;SDS011;38298;50.346;3.526;2022-10-03T20:09:56;13.15;;;5.60;;
52368;SDS011;38298;50.346;3.526;2022-10-03T20:12:26;16.55;;;6.93;;
52368;SDS011;38298;50.346;3.526;2022-10-03T20:14:53;14.13;;;7.40;;
52368;SDS011;38298;50.346;3.526;2022-10-03T20:17:22;13.95;;;6.07;;
52368;SDS011;38298;50.346;3.526;2022-10-03T20:19:53;13.15;;;6.15;;
52368;SDS011;38298;50.346;3.526;2022-10-03T20:22:24;10.77;;;5.57;;
52368;SDS011;38298;50.346;3.526;2022-10-03T20:24:50;11.05;;;5.07;;
52368;SDS011;38298;50.346;3.526;2022-10-03T20:32:45;15.00;;;5.45;;
52368;SDS011;38298;50.346;3.526;2022-10-03T20:35:18;10.70;;;5.50;;
52368;SDS011;38298;50.346;3.526;2022-10-03T20:37:46;12.27;;;4.88;;
52368;SDS011;38298;50.346;3.526;2022-10-03T20:40:19;10.80;;;4.97;;
52368;SDS011;38298;50.346;3.526;2022-10-03T20:42:48;12.35;;;4.53;;
52368;SDS011;38298;50.346;3.526;2022-10-03T20:45:18;12.63;;;5.57;;
52368;SDS011;38298;50.346;3.526;2022-10-03T20:47:55;21.02;;;11.82;;
52368;SDS011;38298;50.346;3.526;2022-10-03T20:50:34;13.90;;;7.25;;
52368;SDS011;38298;50.346;3.526;2022-10-03T20:53:14;8.13;;;4.93;;
52368;SDS011;38298;50.346;3.526;2022-10-03T20:55:51;12.95;;;5.80;;
52368;SDS011;38298;50.346;3.526;2022-10-03T20:58:26;14.05;;;5.03;;
52368;SDS011;38298;50.346;3.526;2022-10-03T21:00:58;15.98;;;5.90;;
52368;SDS011;38298;50.346;3.526;2022-10-03T21:03:26;11.45;;;5.30;;
52368;SDS011;38298;50.346;3.526;2022-10-03T21:05:54;13.80;;;4.90;;
52368;SDS011;38298;50.346;3.526;2022-10-03T21:08:24;10.20;;;5.22;;
52368;SDS011;38298;50.346;3.526;2022-10-03T21:10:57;18.13;;;7.60;;
52368;SDS011;38298;50.346;3.526;2022-10-03T21:15:56;11.02;;;5.13;;
52368;SDS011;38298;50.346;3.526;2022-10-03T21:23:31;11.88;;;5.32;;
52368;SDS011;38298;50.346;3.526;2022-10-03T21:25:57;9.02;;;4.80;;
52368;SDS011;38298;50.346;3.526;2022-10-03T21:28:26;11.18;;;5.25;;
52368;SDS011;38298;50.346;3.526;2022-10-03T21:34:00;9.35;;;5.20;;
52368;SDS011;38298;50.346;3.526;2022-10-03T21:36:33;10.55;;;5.35;;
52368;SDS011;38298;50.346;3.526;2022-10-03T21:39:06;7.78;;;4.97;;
52368;SDS011;38298;50.346;3.526;2022-10-03T21:41:49;12.27;;;5.22;;
52368;SDS011;38298;50.346;3.526;2022-10-03T21:44:27;14.73;;;5.57;;
52368;SDS011;38298;50.346;3.526;2022-10-03T21:47:02;13.57;;;5.85;;
52368;SDS011;38298;50.346;3.526;2022-10-03T22:00:07;14.32;;;5.70;;
52368;SDS011;38298;50.346;3.526;2022-10-03T22:07:45;13.38;;;6.13;;
52368;SDS011;38298;50.346;3.526;2022-10-03T22:10:26;10.10;;;5.93;;
52368;SDS011;38298;50.346;3.526;2022-10-03T22:12:59;13.07;;;6.53;;
52368;SDS011;38298;50.346;3.526;2022-10-03T22:18:10;11.65;;;5.78;;
52368;SDS011;38298;50.346;3.526;2022-10-03T22:20:37;10.93;;;5.97;;
52368;SDS011;38298;50.346;3.526;2022-10-03T22:28:36;10.30;;;6.03;;
52368;SDS011;38298;50.346;3.526;2022-10-03T22:33:44;17.80;;;5.70;;
52368;SDS011;38298;50.346;3.526;2022-10-03T22:36:13;13.48;;;5.95;;
52368;SDS011;38298;50.346;3.526;2022-10-03T22:38:42;22.60;;;7.25;;
52368;SDS011;38298;50.346;3.526;2022-10-03T22:41:10;14.95;;;6.82;;
52368;SDS011;38298;50.346;3.526;2022-10-03T22:43:36;15.05;;;6.20;;
52368;SDS011;38298;50.346;3.526;2022-10-03T22:46:03;11.10;;;6.05;;
52368;SDS011;38298;50.346;3.526;2022-10-03T22:48:33;13.23;;;6.55;;
52368;SDS011;38298;50.346;3.526;2022-10-03T22:51:00;13.77;;;6.47;;
52368;SDS011;38298;50.346;3.526;2022-10-03T22:53:29;10.07;;;6.03;;
52368;SDS011;38298;50.346;3.526;2022-10-03T22:55:57;10.35;;;5.85;;
52368;SDS011;38298;50.346;3.526;2022-10-03T22:58:23;19.02;;;6.53;;
52368;SDS011;38298;50.346;3.526;2022-10-03T23:00:51;9.18;;;6.40;;
52368;SDS011;38298;50.346;3.526;2022-10-03T23:03:20;15.73;;;6.25;;
52368;SDS011;38298;50.346;3.526;2022-10-03T23:06:10;11.50;;;6.18;;
52368;SDS011;38298;50.346;3.526;2022-10-03T23:11:08;8.80;;;6.00;;
52368;SDS011;38298;50.346;3.526;2022-10-03T23:13:39;13.05;;;6.13;;
52368;SDS011;38298;50.346;3.526;2022-10-03T23:21:07;11.23;;;5.88;;
52368;SDS011;38298;50.346;3.526;2022-10-03T23:26:37;15.85;;;6.40;;
52368;SDS011;38298;50.346;3.526;2022-10-03T23:29:10;14.57;;;6.38;;
52368;SDS011;38298;50.346;3.526;2022-10-03T23:36:58;16.10;;;5.63;;
52368;SDS011;38298;50.346;3.526;2022-10-03T23:39:32;9.68;;;5.95;;
52368;SDS011;38298;50.346;3.526;2022-10-03T23:42:01;9.32;;;6.47;;
52368;SDS011;38298;50.346;3.526;2022-10-03T23:44:39;9.48;;;5.82;;
52368;SDS011;38298;50.346;3.526;2022-10-03T23:47:08;15.77;;;6.47;;
52368;SDS011;38298;50.346;3.526;2022-10-03T23:49:36;12.77;;;6.63;;
52368;SDS011;38298;50.346;3.526;2022-10-03T23:52:03;12.90;;;5.93;;
52368;SDS011;38298;50.346;3.526;2022-10-03T23:54:29;17.83;;;6.25;;
52368;SDS011;38298;50.346;3.526;2022-10-03T23:57:00;16.17;;;6.95;;
52368;SDS011;38298;50.346;3.526;2022-10-03T23:59:28;15.13;;;6.20;;
